• Join FlightAware (Why Join?)
  • Login
  • US Flag GB Flag 
21:41 EST


 

Airport Tracker/Info


-or-


 

Live Flight TrackerFlight Track Log ✈ SWA1021 ✈ 11-Apr-2013 ✈ KOAK - KLAX

Flight Track Log - Related Links

Times and Time Zones

All times are in EDT time to prevent confusion due to time zone crossing. See the SWA1021 flight status page for this flight to view local times or setup timezone preferences in your user account.

Time Position Orientation Groundspeed Altitude Reporting Facility
EDT Latitude Longitude Course Direction KTS MPH feet Rate Location/Type
10:09 37.7333 -122.2500 299° West 173 199 1,200  Level Northern Cal TRACON
10:09 37.7472 -122.2817 299° West 192 221 2,500 2,727 Climbing Oakland Center
10:10 37.7683 -122.3647 288° West 247 284 5,700 3,740 Climbing Oakland Center
10:11 37.7667 -122.4000 267° West 279 321 7,300 3,840 Climbing Northern Cal TRACON
10:12 37.7000 -122.4500 211° Southwest 314 361 10,500 2,893 Climbing Northern Cal TRACON
10:13 37.5658 -122.3511 150° Southeast 344 396 15,400 2,627 Climbing Oakland Center
10:14 37.4792 -122.2381 134° Southeast 376 433 17,900 2,311 Climbing Oakland Center
10:15 37.3997 -122.1367 135° Southeast 404 465 20,100 2,459 Climbing Oakland Center
10:16 37.3192 -122.0336 134° Southeast 414 476 22,900 2,098 Climbing Oakland Center
10:18 37.2361 -121.9283 135° Southeast 426 490 24,400 1,756 Climbing Oakland Center
10:19 37.1486 -121.8181 135° Southeast 443 510 26,500 1,820 Climbing Oakland Center
10:20 37.0611 -121.7083 135° Southeast 446 513 28,100 1,328 Climbing Oakland Center
10:21 36.9689 -121.5950 136° Southeast 463 533 29,200 1,279 Climbing Oakland Center
10:22 36.8736 -121.4775 135° Southeast 479 551 30,700 1,377 Climbing Oakland Center
10:23 36.7692 -121.3597 138° Southeast 486 559 32,000 1,317 Climbing Oakland Center
10:24 36.6681 -121.2419 137° Southeast 495 570 33,400 1,463 Climbing Oakland Center
10:25 36.5689 -121.1247 136° Southeast 494 568 35,000 1,328 Climbing Oakland Center
10:26 36.4692 -121.0103 137° Southeast 489 563 36,100 984 Climbing Oakland Center
10:27 36.3497 -120.8714 137° Southeast 490 564 37,000 443 Climbing Oakland Center
10:28 36.2469 -120.7550 138° Southeast 499 574 37,000  Level Oakland Center
10:29 36.1442 -120.6381 137° Southeast 502 578 37,000  Level Oakland Center
10:30 36.0428 -120.5200 137° Southeast 501 577 37,000  Level Oakland Center
10:31 35.9389 -120.4036 138° Southeast 502 578 37,000  Level Oakland Center
10:32 35.8342 -120.2878 138° Southeast 503 579 37,000  Level Oakland Center
10:33 35.7306 -120.1711 138° Southeast 502 578 37,000  Level Oakland Center
10:34 35.6261 -120.0536 138° Southeast 503 579 37,000  Level Oakland Center
10:35 35.5217 -119.9369 138° Southeast 502 578 37,000  Level Oakland Center
10:36 35.4178 -119.8211 138° Southeast 500 575 37,000  Level Oakland Center
10:37 35.3150 -119.7069 138° Southeast 496 571 37,000  Level Oakland Center
10:37 35.2744 -119.6625 138° Southeast 495 570 37,000 -800 Level Los Angeles Center
10:38 35.1428 -119.5447 144° Southeast 488 562 35,800 -1,707 Descending Los Angeles Center
10:39 35.0297 -119.4478 145° Southeast 492 566 33,500 -2,244 Descending Los Angeles Center
10:40 34.9194 -119.3547 145° Southeast 485 558 31,200 -2,613 Descending Los Angeles Center
10:41 34.8072 -119.2606 145° Southeast 488 562 28,100 -3,097 Descending Los Angeles Center
10:42 34.6947 -119.1656 145° Southeast 491 565 24,800 -3,194 Descending Los Angeles Center
10:44 34.5667 -119.0581 145° Southeast 484 557 21,500 -2,868 Descending Los Angeles Center
10:45 34.4425 -118.9547 146° Southeast 447 514 18,300 -2,603 Descending Los Angeles Center
10:46 34.3422 -118.8750 147° Southeast 427 491 15,600 -2,585 Descending Los Angeles Center
10:47 34.2339 -118.8358 163° South 406 467 13,000 -2,098 Descending Los Angeles Center
10:48 34.1319 -118.7986 163° South 384 442 11,300 -1,452 Descending Los Angeles Center
10:49 34.0403 -118.7397 152° Southeast 341 392 10,000 -919 Descending Los Angeles Center
10:50 34.0269 -118.6333 99° East 293 337 9,400 -919 Descending Los Angeles Center
10:51 34.0172 -118.5367 97° East 290 334 8,100 -1,220 Descending Los Angeles Center
10:52 34.0108 -118.4425 95° East 277 319 6,900 -1,317 Descending Los Angeles Center
10:53 34.0208 -118.3547 82° East 270 311 5,400 -1,452 Descending Los Angeles Center
10:54 34.0272 -118.2664 85° East 266 306 3,900 -968 Descending Los Angeles Center
10:55 33.9831 -118.2331 148° Southeast 234 269 3,400 -919 Descending Los Angeles Center
10:56 33.9636 -118.2958 250° West 218 251 2,000 -1,113 Descending Los Angeles Center
10:57 33.9581 -118.3475 263° West 183 211 1,100 -878 Descending Los Angeles Center
10:58 33.9522 -118.4014 263° West 151 174 200 -885 Descending Los Angeles Center
11:01 33.9425 -118.4081 228° Southwest  Level Estimated